Time;durP1;ratioP1;P1;durP2;ratioP2;P2;SDS_P1;SDS_P2;PMS_P1;PMS_P2;Temp;Humidity;BMP_temperature;BMP_pressure;BME280_temperature;BME280_humidity;BME280_pressure;Samples;Min_cycle;Max_cycle;Signal;HPM_P1;HPM_P2
2022/01/04 00:01:11;;;;;;;18.20;15.40;;;;;;99304.36;;;;106976;1281;64755;-35
2022/01/04 00:03:37;;;;;;;18.60;15.10;;;;;;99301.38;;;;107005;1278;65949;-35
2022/01/04 00:06:05;;;;;;;16.90;15.10;;;;;;99300.17;;;;106977;1278;64814;-35
2022/01/04 00:08:32;;;;;;;18.10;15.10;;;;;;99300.55;;;;106999;1279;64905;-35
2022/01/04 00:11:15;;;;;;;17.70;15.50;;;;;;99305.77;;;;106996;1282;64870;-35
2022/01/04 00:13:43;;;;;;;16.90;14.60;;;;;;99307.63;;;;107003;1281;64987;-43
2022/01/04 00:16:11;;;;;;;17.10;14.70;;;;;;99307.35;;;;107025;1279;64763;-44
2022/01/04 00:18:39;;;;;;;20.00;15.90;;;;;;99304.46;;;;106987;1279;64899;-44
2022/01/04 00:21:07;;;;;;;19.80;15.60;;;;;;99300.20;;;;107015;1279;64752;-44
2022/01/04 00:23:34;;;;;;;17.90;14.80;;;;;;99297.66;;;;106977;1278;64895;-35
2022/01/04 00:26:01;;;;;;;19.10;15.40;;;;;;99299.24;;;;107003;1281;64747;-37
2022/01/04 00:28:28;;;;;;;18.60;15.90;;;;;;99301.80;;;;107022;1278;68168;-35
2022/01/04 00:30:55;;;;;;;18.60;15.80;;;;;;99299.47;;;;106974;1278;64741;-35
2022/01/04 00:33:23;;;;;;;19.00;15.80;;;;;;99300.05;;;;106963;1278;64759;-43
2022/01/04 00:35:51;;;;;;;19.20;15.90;;;;;;99297.36;;;;106941;1278;64904;-44
2022/01/04 00:38:18;;;;;;;18.40;15.50;;;;;;99298.02;;;;106991;1277;64751;-35
2022/01/04 00:40:45;;;;;;;18.30;15.70;;;;;;99297.54;;;;107003;1278;66583;-35
2022/01/04 00:43:13;;;;;;;18.00;15.30;;;;;;99298.46;;;;107001;1282;64766;-35
2022/01/04 00:45:40;;;;;;;18.50;15.90;;;;;;99298.11;;;;106984;1281;64873;-35
2022/01/04 00:50:37;;;;;;;17.60;15.30;;;;;;99293.03;;;;107026;1278;64765;-35
2022/01/04 00:53:05;;;;;;;16.50;14.80;;;;;;99283.23;;;;106999;1278;67416;-35
2022/01/04 00:55:33;;;;;;;19.20;16.10;;;;;;99282.27;;;;107003;1282;64888;-44
2022/01/04 00:58:02;;;;;;;18.60;15.50;;;;;;99280.45;;;;106966;1278;64793;-44
2022/01/04 01:00:29;;;;;;;17.50;15.50;;;;;;99274.56;;;;107022;1278;64869;-35
2022/01/04 01:02:57;;;;;;;19.00;16.20;;;;;;99268.31;;;;106784;1280;277816;-35
2022/01/04 01:05:26;;;;;;;19.60;16.10;;;;;;99264.19;;;;107003;1282;66137;-44
2022/01/04 01:07:54;;;;;;;18.00;15.30;;;;;;99260.16;;;;106934;1278;64772;-44
2022/01/04 01:13:11;;;;;;;17.60;15.10;;;;;;99260.77;;;;106957;1277;64894;-36
2022/01/04 01:15:40;;;;;;;18.00;15.30;;;;;;99263.51;;;;107056;1278;64891;-36
2022/01/04 01:18:08;;;;;;;17.40;14.80;;;;;;99261.96;;;;106970;1278;65864;-42
2022/01/04 01:20:35;;;;;;;16.60;14.80;;;;;;99260.68;;;;106954;1277;64855;-43
2022/01/04 01:23:02;;;;;;;17.40;14.90;;;;;;99256.31;;;;106912;1281;64743;-44
2022/01/04 01:25:30;;;;;;;17.60;15.10;;;;;;99256.94;;;;106985;1277;65590;-35
2022/01/04 01:27:57;;;;;;;17.90;14.60;;;;;;99251.58;;;;106933;1281;64821;-35
2022/01/04 01:30:26;;;;;;;17.10;14.60;;;;;;99250.02;;;;106993;1278;64895;-35
2022/01/04 01:32:53;;;;;;;17.00;14.00;;;;;;99246.61;;;;106977;1278;64770;-35
2022/01/04 01:35:20;;;;;;;16.20;14.10;;;;;;99236.85;;;;106920;1281;64781;-35
2022/01/04 01:37:47;;;;;;;16.80;14.90;;;;;;99238.79;;;;106989;1278;64811;-35
2022/01/04 01:40:14;;;;;;;17.80;14.80;;;;;;99238.98;;;;106996;1278;64874;-35
2022/01/04 01:42:41;;;;;;;17.90;14.70;;;;;;99239.11;;;;107010;1277;67664;-35
2022/01/04 01:45:12;;;;;;;16.50;14.00;;;;;;99240.53;;;;106993;1278;64880;-35
2022/01/04 01:47:41;;;;;;;18.00;14.50;;;;;;99242.42;;;;106999;1277;65660;-35
2022/01/04 01:50:11;;;;;;;17.90;14.10;;;;;;99238.35;;;;106920;1280;64838;-44
2022/01/04 01:52:40;;;;;;;16.40;13.90;;;;;;99239.98;;;;107020;1278;64728;-44
2022/01/04 01:55:09;;;;;;;16.70;14.70;;;;;;99235.19;;;;107014;1278;66975;-45
2022/01/04 01:57:37;;;;;;;17.40;14.20;;;;;;99233.55;;;;107032;1278;64859;-43
2022/01/04 02:00:11;;;;;;;17.20;13.80;;;;;;99233.30;;;;107012;1277;64849;-35
2022/01/04 02:02:39;;;;;;;15.50;13.80;;;;;;99231.20;;;;106907;1281;64748;-36
2022/01/04 02:05:08;;;;;;;16.70;13.40;;;;;;99229.96;;;;107025;1278;64796;-35
2022/01/04 02:07:38;;;;;;;17.10;14.10;;;;;;99229.93;;;;107034;1278;66095;-35
2022/01/04 02:10:07;;;;;;;16.20;13.50;;;;;;99231.74;;;;107002;1278;64878;-43
2022/01/04 02:12:46;;;;;;;16.20;13.60;;;;;;99237.88;;;;107023;1278;64759;-44
2022/01/04 02:15:18;;;;;;;16.80;13.70;;;;;;99232.55;;;;106965;1278;64866;-44
2022/01/04 02:17:45;;;;;;;17.40;13.70;;;;;;99232.71;;;;106935;1277;64763;-45
2022/01/04 02:20:14;;;;;;;15.20;13.00;;;;;;99228.98;;;;106998;1277;64794;-44
2022/01/04 02:22:42;;;;;;;16.10;13.70;;;;;;99227.61;;;;107025;1278;64870;-44
2022/01/04 02:25:10;;;;;;;16.20;13.00;;;;;;99223.91;;;;107014;1278;64909;-43
2022/01/04 02:27:40;;;;;;;15.50;13.10;;;;;;99222.39;;;;107030;1278;64840;-43
2022/01/04 02:30:12;;;;;;;15.00;12.60;;;;;;99221.15;;;;107013;1277;64759;-43
2022/01/04 02:32:39;;;;;;;17.20;13.30;;;;;;99221.06;;;;106940;1281;65971;-43
2022/01/04 02:35:07;;;;;;;16.10;13.00;;;;;;99222.50;;;;106977;1277;64894;-44
2022/01/04 02:37:34;;;;;;;15.60;12.30;;;;;;99219.45;;;;107023;1277;64728;-43
2022/01/04 02:40:03;;;;;;;15.20;12.70;;;;;;99214.30;;;;106896;1279;64872;-44
2022/01/04 02:42:31;;;;;;;15.50;13.10;;;;;;99217.46;;;;107040;1278;64780;-44
2022/01/04 02:45:00;;;;;;;15.40;12.40;;;;;;99215.77;;;;106987;1278;65942;-44
2022/01/04 02:47:28;;;;;;;14.70;12.50;;;;;;99214.54;;;;106923;1281;64837;-44
2022/01/04 02:49:56;;;;;;;15.80;12.60;;;;;;99211.09;;;;106946;1281;64896;-45
2022/01/04 02:52:23;;;;;;;14.20;12.00;;;;;;99203.98;;;;107002;1278;64902;-44
2022/01/04 02:54:50;;;;;;;15.50;12.30;;;;;;99199.61;;;;106993;1277;64748;-34
2022/01/04 02:57:17;;;;;;;14.50;12.40;;;;;;99201.57;;;;107002;1277;66528;-35
2022/01/04 02:59:45;;;;;;;14.30;12.20;;;;;;99192.22;;;;106987;1277;64729;-35
2022/01/04 03:02:12;;;;;;;14.30;11.70;;;;;;99188.29;;;;106996;1277;64854;-35
2022/01/04 03:04:39;;;;;;;13.60;11.30;;;;;;99186.04;;;;106988;1277;64800;-43
2022/01/04 03:07:06;;;;;;;15.00;12.50;;;;;;99181.45;;;;107019;1278;64796;-44
2022/01/04 03:09:33;;;;;;;14.20;11.80;;;;;;99184.21;;;;107031;1278;67762;-44
2022/01/04 03:12:01;;;;;;;14.90;11.80;;;;;;99183.16;;;;107006;1277;64751;-43
2022/01/04 03:14:28;;;;;;;14.20;11.80;;;;;;99179.71;;;;106922;1279;64854;-35
2022/01/04 03:16:55;;;;;;;16.00;11.90;;;;;;99176.96;;;;106989;1277;64746;-34
2022/01/04 03:19:22;;;;;;;14.20;11.00;;;;;;99167.39;;;;107022;1278;64759;-35
2022/01/04 03:21:49;;;;;;;14.10;10.80;;;;;;99170.52;;;;106961;1279;67465;-35
2022/01/04 03:24:16;;;;;;;14.40;11.00;;;;;;99176.46;;;;107003;1277;64932;-43
2022/01/04 03:26:44;;;;;;;15.00;11.50;;;;;;99168.52;;;;107007;1277;64750;-45
2022/01/04 03:29:14;;;;;;;14.10;11.20;;;;;;99168.04;;;;107002;1277;64916;-38
2022/01/04 03:31:43;;;;;;;12.90;10.90;;;;;;99166.87;;;;107057;1277;64856;-35
2022/01/04 03:34:11;;;;;;;12.90;10.70;;;;;;99169.09;;;;107041;1277;65977;-43
2022/01/04 03:36:39;;;;;;;13.80;10.80;;;;;;99167.63;;;;107029;1277;64942;-44
2022/01/04 03:39:10;;;;;;;13.20;10.90;;;;;;99165.27;;;;107012;1278;64712;-43
2022/01/04 03:41:41;;;;;;;13.40;10.20;;;;;;99161.63;;;;106988;1277;65066;-44
2022/01/04 03:44:14;;;;;;;13.50;10.80;;;;;;99163.14;;;;107007;1278;64714;-35
2022/01/04 03:46:41;;;;;;;14.30;11.10;;;;;;99153.77;;;;106954;1279;66483;-35
2022/01/04 03:49:08;;;;;;;12.40;10.10;;;;;;99156.60;;;;106999;1278;64880;-43
2022/01/04 03:51:35;;;;;;;14.20;10.40;;;;;;99156.23;;;;106999;1277;64750;-44
2022/01/04 03:54:02;;;;;;;13.00;9.70;;;;;;99152.36;;;;106997;1277;65433;-35
2022/01/04 03:56:29;;;;;;;12.50;9.70;;;;;;99150.58;;;;107021;1277;64918;-34
2022/01/04 03:58:57;;;;;;;12.60;10.30;;;;;;99148.58;;;;106985;1277;67992;-34
2022/01/04 04:01:24;;;;;;;12.50;9.90;;;;;;99151.34;;;;107011;1277;64755;-35
2022/01/04 04:03:51;;;;;;;11.40;9.60;;;;;;99145.58;;;;106894;1279;65019;-35
2022/01/04 04:06:18;;;;;;;12.40;9.80;;;;;;99136.67;;;;106995;1277;64797;-35
2022/01/04 04:08:45;;;;;;;13.90;9.60;;;;;;99133.78;;;;107016;1277;64864;-44
2022/01/04 04:11:13;;;;;;;11.20;8.70;;;;;;99129.18;;;;107016;1277;67121;-44
2022/01/04 04:13:40;;;;;;;12.30;9.20;;;;;;99131.20;;;;106998;1278;64860;-35
2022/01/04 04:16:07;;;;;;;11.00;9.20;;;;;;99132.67;;;;107000;1278;64858;-35
2022/01/04 04:18:34;;;;;;;11.60;8.70;;;;;;99132.52;;;;106999;1277;64937;-37
2022/01/04 04:21:01;;;;;;;11.20;8.90;;;;;;99135.21;;;;107018;1277;64720;-35
2022/01/04 04:23:28;;;;;;;12.20;8.90;;;;;;99128.63;;;;106923;1278;67483;-43
2022/01/04 04:25:55;;;;;;;12.80;9.50;;;;;;99129.84;;;;106881;1281;64879;-43
2022/01/04 04:28:22;;;;;;;10.90;8.30;;;;;;99133.42;;;;107022;1277;64783;-35
2022/01/04 04:30:49;;;;;;;11.60;9.20;;;;;;99135.95;;;;107009;1277;64987;-34
2022/01/04 04:33:16;;;;;;;11.40;8.40;;;;;;99133.09;;;;107017;1277;65075;-35
2022/01/04 04:35:43;;;;;;;12.60;9.60;;;;;;99135.78;;;;106990;1278;65952;-35
2022/01/04 04:38:10;;;;;;;11.10;8.90;;;;;;99138.43;;;;106986;1277;64767;-44
2022/01/04 04:40:37;;;;;;;10.80;8.20;;;;;;99138.40;;;;107006;1277;64892;-44
2022/01/04 04:43:04;;;;;;;10.20;8.40;;;;;;99132.59;;;;106999;1277;64863;-44
2022/01/04 04:45:31;;;;;;;11.50;8.40;;;;;;99130.73;;;;107068;1278;64794;-34
2022/01/04 04:47:58;;;;;;;11.30;8.50;;;;;;99125.16;;;;106971;1279;65658;-35
2022/01/04 04:50:25;;;;;;;10.80;8.30;;;;;;99123.33;;;;106882;1281;64756;-35
2022/01/04 04:52:52;;;;;;;10.40;8.10;;;;;;99125.12;;;;106922;1279;65398;-35
2022/01/04 04:55:19;;;;;;;10.50;7.90;;;;;;99116.21;;;;106904;1279;66095;-34
2022/01/04 04:57:46;;;;;;;9.70;7.40;;;;;;99115.36;;;;106942;1279;64893;-34
2022/01/04 05:00:14;;;;;;;10.60;8.20;;;;;;99121.76;;;;106962;1278;65985;-44
2022/01/04 05:02:42;;;;;;;10.80;7.90;;;;;;99124.05;;;;106967;1278;64888;-44
2022/01/04 05:05:10;;;;;;;11.20;8.00;;;;;;99114.72;;;;106901;1279;64928;-34
2022/01/04 05:07:37;;;;;;;10.40;7.80;;;;;;99110.44;;;;106933;1278;65308;-35
2022/01/04 05:10:06;;;;;;;11.80;8.40;;;;;;99118.48;;;;106908;1278;64887;-35
2022/01/04 05:12:33;;;;;;;10.30;7.50;;;;;;99112.46;;;;106974;1279;66447;-35
2022/01/04 05:15:01;;;;;;;10.10;7.60;;;;;;99107.66;;;;106903;1279;64776;-34
2022/01/04 05:17:29;;;;;;;10.90;7.80;;;;;;99107.30;;;;106969;1278;64787;-34
2022/01/04 05:19:57;;;;;;;8.80;7.00;;;;;;99109.65;;;;106921;1278;64825;-43
2022/01/04 05:22:24;;;;;;;9.30;7.60;;;;;;99110.91;;;;106972;1278;64893;-44
2022/01/04 05:24:51;;;;;;;10.00;7.00;;;;;;99109.17;;;;106938;1278;65399;-35
2022/01/04 05:27:18;;;;;;;10.40;7.40;;;;;;99111.90;;;;106911;1279;64805;-35
2022/01/04 05:29:46;;;;;;;10.60;7.80;;;;;;99114.15;;;;106923;1278;64960;-35
2022/01/04 05:32:12;;;;;;;10.80;7.50;;;;;;99112.90;;;;106906;1281;64876;-35
2022/01/04 05:34:41;;;;;;;9.30;7.30;;;;;;99107.63;;;;106947;1278;64764;-35
2022/01/04 05:37:08;;;;;;;9.60;6.80;;;;;;99104.64;;;;106970;1278;65749;-35
2022/01/04 05:39:35;;;;;;;9.50;7.40;;;;;;99098.38;;;;106930;1278;64800;-43
2022/01/04 05:42:03;;;;;;;9.70;6.50;;;;;;99094.52;;;;106935;1278;64792;-43
2022/01/04 05:44:30;;;;;;;9.10;6.70;;;;;;99095.45;;;;106958;1278;64774;-44
2022/01/04 05:46:57;;;;;;;9.20;7.00;;;;;;99094.51;;;;106913;1279;64954;-43
2022/01/04 05:49:25;;;;;;;9.60;6.80;;;;;;99094.01;;;;107002;1278;65503;-43
2022/01/04 05:51:52;;;;;;;8.10;6.50;;;;;;99087.21;;;;107003;1278;64905;-43
2022/01/04 05:54:19;;;;;;;9.20;6.80;;;;;;99084.44;;;;106937;1278;64832;-35
2022/01/04 05:56:46;;;;;;;8.90;6.80;;;;;;99082.45;;;;106922;1278;64769;-34
2022/01/04 05:59:13;;;;;;;9.00;6.70;;;;;;99079.36;;;;107020;1277;63570;-35
2022/01/04 06:01:40;;;;;;;9.40;6.80;;;;;;99082.54;;;;106979;1277;64979;-35
2022/01/04 06:04:10;;;;;;;9.10;6.80;;;;;;99085.00;;;;106951;1277;65008;-35
2022/01/04 06:06:39;;;;;;;9.30;6.80;;;;;;99080.02;;;;106979;1278;64789;-35
2022/01/04 06:09:08;;;;;;;8.80;6.20;;;;;;99073.73;;;;106898;1279;64759;-35
2022/01/04 06:15:09;;;;;;;9.40;6.50;;;;;;99072.48;;;;107005;1277;67630;-34
2022/01/04 06:17:08;;;;;;;7.90;5.70;;;;;;99062.63;;;;106886;1279;66516;-35
2022/01/04 06:19:35;;;;;;;8.90;6.60;;;;;;99066.81;;;;107025;1278;64729;-35
2022/01/04 06:22:03;;;;;;;9.60;6.90;;;;;;99071.41;;;;106975;1278;65018;-43
2022/01/04 06:24:30;;;;;;;9.80;6.80;;;;;;99073.65;;;;107030;1277;64770;-35
2022/01/04 06:26:57;;;;;;;8.90;6.70;;;;;;99073.09;;;;106985;1278;66865;-35
2022/01/04 06:29:24;;;;;;;9.20;6.50;;;;;;99071.40;;;;106910;1278;64883;-34
2022/01/04 06:31:51;;;;;;;9.00;6.40;;;;;;99073.68;;;;106897;1279;64734;-35
2022/01/04 06:34:19;;;;;;;8.50;6.40;;;;;;99068.98;;;;106988;1278;64906;-35
2022/01/04 06:36:46;;;;;;;8.70;6.40;;;;;;99068.41;;;;106993;1277;64778;-35
2022/01/04 06:39:13;;;;;;;8.20;5.70;;;;;;99063.91;;;;107013;1277;66112;-43
2022/01/04 06:41:40;;;;;;;8.20;5.90;;;;;;99062.95;;;;106985;1277;64899;-43
2022/01/04 06:44:07;;;;;;;9.60;6.20;;;;;;99063.46;;;;106998;1277;64760;-34
2022/01/04 06:46:34;;;;;;;8.70;5.80;;;;;;99064.34;;;;107000;1277;64906;-35
2022/01/04 06:49:02;;;;;;;9.10;6.30;;;;;;99069.00;;;;106948;1278;64819;-43
2022/01/04 06:51:29;;;;;;;9.20;6.00;;;;;;99073.86;;;;106985;1278;66499;-44
2022/01/04 06:53:56;;;;;;;7.80;5.20;;;;;;99078.88;;;;107008;1277;64762;-35
2022/01/04 06:56:23;;;;;;;9.00;6.20;;;;;;99080.92;;;;107009;1278;64739;-35
2022/01/04 06:58:50;;;;;;;8.20;6.00;;;;;;99077.30;;;;106965;1277;64908;-43
2022/01/04 07:01:17;;;;;;;8.70;5.50;;;;;;99073.38;;;;106954;1278;64770;-43
2022/01/04 07:03:44;;;;;;;11.80;6.40;;;;;;99069.57;;;;107046;1277;65758;-35
2022/01/04 07:06:11;;;;;;;8.00;6.00;;;;;;99065.60;;;;106925;1278;64696;-34
2022/01/04 07:08:38;;;;;;;8.00;5.50;;;;;;99062.38;;;;106939;1278;64957;-44
2022/01/04 07:11:05;;;;;;;8.30;5.60;;;;;;99057.55;;;;106995;1277;64862;-44
2022/01/04 07:13:33;;;;;;;8.90;5.70;;;;;;99058.98;;;;107009;1277;64812;-35
2022/01/04 07:16:00;;;;;;;8.40;5.70;;;;;;99056.84;;;;107016;1278;64782;-35
2022/01/04 07:18:27;;;;;;;8.80;6.00;;;;;;99050.90;;;;107016;1277;64728;-46
2022/01/04 07:20:54;;;;;;;7.80;5.10;;;;;;99049.07;;;;107023;1277;64772;-43
2022/01/04 07:23:22;;;;;;;7.50;5.60;;;;;;99052.20;;;;106995;1277;64991;-43
2022/01/04 07:25:49;;;;;;;7.70;5.20;;;;;;99050.95;;;;107009;1277;64772;-43
2022/01/04 07:28:16;;;;;;;8.00;5.10;;;;;;99047.34;;;;107009;1277;65660;-42
2022/01/04 07:30:44;;;;;;;7.50;5.40;;;;;;99047.27;;;;106987;1277;64783;-43
2022/01/04 07:33:11;;;;;;;8.10;5.70;;;;;;99050.16;;;;106997;1277;64732;-35
2022/01/04 07:35:38;;;;;;;7.80;5.10;;;;;;99054.23;;;;106967;1277;64744;-35
2022/01/04 07:38:05;;;;;;;7.30;5.10;;;;;;99042.09;;;;107020;1277;64782;-39
2022/01/04 07:40:33;;;;;;;7.30;5.20;;;;;;99035.04;;;;106999;1278;64922;-44
2022/01/04 07:43:00;;;;;;;8.30;5.30;;;;;;99032.05;;;;107008;1277;65579;-43
2022/01/04 07:45:32;;;;;;;7.50;4.50;;;;;;99032.99;;;;106921;1278;64717;-34
2022/01/04 07:48:01;;;;;;;6.60;4.70;;;;;;99029.25;;;;107015;1277;65001;-44
2022/01/04 07:50:28;;;;;;;7.70;5.20;;;;;;99029.38;;;;107069;1277;64873;-43
2022/01/04 07:52:55;;;;;;;7.80;5.30;;;;;;99024.45;;;;107001;1277;65915;-43
2022/01/04 07:55:22;;;;;;;7.50;5.10;;;;;;99027.52;;;;106942;1278;64904;-44
2022/01/04 07:57:49;;;;;;;9.10;5.40;;;;;;99029.98;;;;106935;1279;64996;-44
2022/01/04 08:00:16;;;;;;;7.00;4.90;;;;;;99025.14;;;;106989;1277;64741;-44
2022/01/04 08:02:44;;;;;;;7.30;5.00;;;;;;99025.28;;;;107046;1278;64752;-44
2022/01/04 08:05:12;;;;;;;7.60;5.10;;;;;;99018.52;;;;107004;1277;65851;-43
2022/01/04 08:07:40;;;;;;;8.20;5.00;;;;;;99011.77;;;;106939;1279;64763;-43
2022/01/04 08:10:09;;;;;;;7.20;4.80;;;;;;99013.14;;;;106975;1279;64756;-35
2022/01/04 08:12:36;;;;;;;6.90;4.70;;;;;;99008.52;;;;107011;1278;64877;-34
2022/01/04 08:15:08;;;;;;;7.00;4.90;;;;;;99008.35;;;;106896;1279;64915;-43
2022/01/04 08:17:36;;;;;;;7.20;4.60;;;;;;98998.35;;;;107042;1277;65851;-45
2022/01/04 08:20:06;;;;;;;7.70;5.10;;;;;;98990.36;;;;107021;1277;64737;-43
2022/01/04 08:22:34;;;;;;;7.90;5.00;;;;;;98985.55;;;;107024;1277;64821;-43
2022/01/04 08:25:08;;;;;;;7.30;4.90;;;;;;98981.20;;;;106996;1278;64890;-34
2022/01/04 08:27:36;;;;;;;7.30;4.60;;;;;;98974.52;;;;107018;1278;65164;-35
2022/01/04 08:30:06;;;;;;;7.50;4.80;;;;;;98967.78;;;;106991;1278;65682;-35
2022/01/04 08:32:34;;;;;;;7.00;4.70;;;;;;98957.06;;;;107013;1277;64773;-35
2022/01/04 08:35:02;;;;;;;7.30;4.80;;;;;;98955.48;;;;107001;1277;64822;-35
2022/01/04 08:37:30;;;;;;;8.00;5.00;;;;;;98955.39;;;;106996;1278;64740;-35
2022/01/04 08:39:57;;;;;;;7.80;5.10;;;;;;98951.52;;;;106938;1277;64745;-45
2022/01/04 08:42:24;;;;;;;6.60;4.70;;;;;;98953.03;;;;107010;1277;64924;-43
2022/01/04 08:44:54;;;;;;;7.50;5.00;;;;;;98953.45;;;;107011;1277;64864;-35
2022/01/04 08:47:22;;;;;;;8.70;5.50;;;;;;98947.53;;;;106994;1278;64772;-35
2022/01/04 08:49:49;;;;;;;9.10;6.60;;;;;;98944.98;;;;106989;1277;64854;-43
2022/01/04 08:52:17;;;;;;;8.40;6.00;;;;;;98943.88;;;;107043;1278;64781;-43
2022/01/04 08:54:44;;;;;;;8.40;5.90;;;;;;98939.83;;;;107030;1278;65866;-35
2022/01/04 08:57:11;;;;;;;9.00;6.20;;;;;;98937.02;;;;106919;1279;64782;-35
2022/01/04 08:59:38;;;;;;;8.80;6.10;;;;;;98927.02;;;;107009;1278;64831;-35
2022/01/04 09:02:05;;;;;;;8.40;6.10;;;;;;98921.06;;;;106695;1277;392342;-34
2022/01/04 09:04:32;;;;;;;8.60;6.40;;;;;;98920.24;;;;107003;1277;64896;-35
2022/01/04 09:07:00;;;;;;;7.50;6.00;;;;;;98919.79;;;;106817;1279;66418;-35
2022/01/04 09:09:27;;;;;;;8.30;5.80;;;;;;98913.80;;;;107008;1277;65010;-44
2022/01/04 09:11:54;;;;;;;9.00;5.70;;;;;;98911.11;;;;107012;1278;64743;-44
2022/01/04 09:14:29;;;;;;;8.60;5.60;;;;;;98909.54;;;;106994;1277;64741;-45
2022/01/04 09:19:41;;;;;;;8.80;6.10;;;;;;98916.24;;;;106811;1278;68108;-27
2022/01/04 09:22:08;;;;;;;8.50;6.20;;;;;;98914.95;;;;106910;1279;64800;-29
2022/01/04 09:24:37;;;;;;;9.10;6.00;;;;;;98908.98;;;;106911;1278;64752;-27
2022/01/04 09:27:06;;;;;;;9.40;5.80;;;;;;98912.02;;;;106913;1278;64875;-25
2022/01/04 09:29:33;;;;;;;8.90;5.60;;;;;;98911.41;;;;106945;1278;64728;-26
2022/01/04 09:32:04;;;;;;;9.00;5.60;;;;;;98908.81;;;;107053;1275;64459;-34
2022/01/04 09:34:31;;;;;;;8.80;5.30;;;;;;98894.98;;;;106983;1279;64897;-38
2022/01/04 09:36:58;;;;;;;8.60;5.60;;;;;;98896.10;;;;106968;1279;64777;-26
2022/01/04 09:39:26;;;;;;;7.20;5.00;;;;;;98894.13;;;;106864;1280;64905;-27
2022/01/04 09:41:55;;;;;;;8.30;5.60;;;;;;98883.50;;;;106837;1279;64951;-26
2022/01/04 09:44:25;;;;;;;7.90;5.50;;;;;;98879.98;;;;106947;1279;64993;-27
2022/01/04 09:46:52;;;;;;;7.50;5.00;;;;;;98873.95;;;;106917;1279;64894;-35
2022/01/04 09:49:20;;;;;;;8.10;5.40;;;;;;98869.69;;;;106938;1279;64784;-49
2022/01/04 09:51:49;;;;;;;9.20;5.90;;;;;;98859.13;;;;106865;1281;64873;-33
2022/01/04 09:54:21;;;;;;;8.40;5.10;;;;;;98856.46;;;;106609;1280;64794;-33
2022/01/04 09:56:50;;;;;;;10.20;5.40;;;;;;98859.90;;;;106952;1279;66339;-33
2022/01/04 09:59:19;;;;;;;7.30;5.60;;;;;;98857.60;;;;106960;1279;64744;-33
2022/01/04 10:01:53;;;;;;;9.60;5.20;;;;;;98848.38;;;;106880;1279;64832;-25
2022/01/04 10:04:24;;;;;;;7.50;5.00;;;;;;98846.05;;;;106920;1279;64788;-28
2022/01/04 10:07:02;;;;;;;7.70;5.10;;;;;;98840.23;;;;106918;1281;64650;-27
2022/01/04 10:09:39;;;;;;;8.60;5.00;;;;;;98841.82;;;;106924;1281;65877;-27
2022/01/04 10:12:07;;;;;;;8.10;5.10;;;;;;98845.29;;;;106921;1279;64742;-33
2022/01/04 10:14:40;;;;;;;7.70;5.20;;;;;;98835.52;;;;106837;1279;64857;-34
2022/01/04 10:17:21;;;;;;;6.60;4.50;;;;;;98830.00;;;;106617;1279;64838;-32
2022/01/04 10:19:54;;;;;;;7.70;5.00;;;;;;98827.60;;;;106970;1279;63473;-34
2022/01/04 10:22:24;;;;;;;7.00;4.80;;;;;;98818.96;;;;106893;1280;67136;-33
2022/01/04 10:25:12;;;;;;;7.20;4.50;;;;;;98811.75;;;;106948;1279;64734;-32
2022/01/04 10:27:47;;;;;;;7.10;5.00;;;;;;98813.84;;;;106981;1279;64863;-25
2022/01/04 10:30:34;;;;;;;6.80;4.80;;;;;;98811.58;;;;106844;1281;64805;-26
2022/01/04 10:33:08;;;;;;;8.10;4.60;;;;;;98811.44;;;;106902;1280;64871;-34
2022/01/04 10:35:42;;;;;;;10.90;4.90;;;;;;98807.17;;;;106832;1281;66829;-35
2022/01/04 10:38:16;;;;;;;7.60;4.60;;;;;;98807.54;;;;106904;1280;64867;-35
2022/01/04 10:40:48;;;;;;;8.20;4.70;;;;;;98816.53;;;;106900;1279;65014;-33
2022/01/04 10:43:18;;;;;;;7.70;4.60;;;;;;98813.27;;;;106694;1281;64886;-27
2022/01/04 10:45:48;;;;;;;6.50;4.90;;;;;;98803.41;;;;106928;1280;64791;-26
2022/01/04 10:48:22;;;;;;;9.50;4.80;;;;;;98787.77;;;;106929;1280;65940;-27
2022/01/04 10:50:55;;;;;;;7.10;4.50;;;;;;98789.34;;;;106607;1280;64911;-26
2022/01/04 10:53:30;;;;;;;7.40;4.40;;;;;;98784.48;;;;106871;1279;65642;-33
2022/01/04 10:56:04;;;;;;;7.70;4.60;;;;;;98776.48;;;;106972;1279;64865;-33
2022/01/04 10:58:43;;;;;;;7.30;4.60;;;;;;98776.94;;;;106957;1279;64871;-26
2022/01/04 11:01:17;;;;;;;8.70;4.80;;;;;;98768.52;;;;106964;1279;67159;-27
2022/01/04 11:03:54;;;;;;;6.50;4.60;;;;;;98761.16;;;;106911;1279;64755;-27
2022/01/04 11:06:34;;;;;;;6.80;4.30;;;;;;98764.63;;;;106995;1279;64872;-27
2022/01/04 11:09:04;;;;;;;7.10;4.70;;;;;;98765.84;;;;106950;1279;64733;-31
2022/01/04 11:11:31;;;;;;;7.30;4.20;;;;;;98753.54;;;;106995;1279;64753;-30
2022/01/04 11:13:59;;;;;;;6.50;4.30;;;;;;98746.82;;;;106973;1279;65932;-38
2022/01/04 11:16:30;;;;;;;7.00;4.50;;;;;;98743.41;;;;106941;1279;64758;-40
2022/01/04 11:18:59;;;;;;;7.30;4.00;;;;;;98745.11;;;;106870;1281;64894;-26
2022/01/04 11:21:34;;;;;;;6.60;4.20;;;;;;98737.92;;;;106851;1280;65043;-27
2022/01/04 11:24:06;;;;;;;6.90;4.50;;;;;;98727.13;;;;106942;1279;64772;-30
2022/01/04 11:26:39;;;;;;;7.90;3.90;;;;;;98724.73;;;;106961;1279;67355;-30
2022/01/04 11:29:10;;;;;;;6.60;4.40;;;;;;98719.34;;;;106281;1279;64876;-29
2022/01/04 11:32:05;;;;;;;7.50;4.20;;;;;;98715.83;;;;106602;1280;64555;-27
2022/01/04 11:35:22;;;;;;;7.30;4.50;;;;;;98709.45;;;;106264;1280;64934;-27
2022/01/04 11:37:54;;;;;;;6.00;3.80;;;;;;98704.23;;;;106975;1279;62339;-35
2022/01/04 11:40:35;;;;;;;8.10;4.10;;;;;;98702.23;;;;106790;1280;66417;-36
2022/01/04 11:43:07;;;;;;;6.80;4.00;;;;;;98698.65;;;;106615;1280;64784;-33
2022/01/04 11:45:46;;;;;;;8.20;4.30;;;;;;98693.17;;;;106956;1279;64943;-33
2022/01/04 11:48:34;;;;;;;7.80;4.10;;;;;;98689.73;;;;106897;1279;64769;-32
2022/01/04 11:51:08;;;;;;;6.10;4.10;;;;;;98681.93;;;;106945;1279;64886;-33
2022/01/04 11:53:36;;;;;;;6.50;4.20;;;;;;98672.94;;;;106957;1279;65974;-32
2022/01/04 11:56:08;;;;;;;8.30;4.00;;;;;;98667.07;;;;106917;1279;64773;-32
2022/01/04 11:59:18;;;;;;;7.20;3.80;;;;;;98660.73;;;;106955;1279;64837;-35
2022/01/04 12:01:46;;;;;;;6.50;4.00;;;;;;98651.56;;;;106933;1278;64713;-34
2022/01/04 12:04:46;;;;;;;7.30;4.30;;;;;;98642.55;;;;106966;1279;64865;-33
2022/01/04 12:07:41;;;;;;;7.40;4.00;;;;;;98636.91;;;;106937;1280;65897;-31
2022/01/04 12:10:18;;;;;;;8.50;4.70;;;;;;98628.83;;;;106789;1280;65315;-32
2022/01/04 12:13:04;;;;;;;8.20;4.40;;;;;;98620.44;;;;106958;1279;64891;-32
2022/01/04 12:15:34;;;;;;;6.90;4.10;;;;;;98621.13;;;;106960;1279;64724;-33
2022/01/04 12:18:03;;;;;;;8.90;3.60;;;;;;98616.04;;;;106971;1279;64850;-32
2022/01/04 12:20:42;;;;;;;7.40;4.70;;;;;;98612.83;;;;106936;1279;65478;-32
2022/01/04 12:23:31;;;;;;;9.60;4.70;;;;;;98607.98;;;;106944;1279;65014;-33
2022/01/04 12:26:05;;;;;;;6.30;4.20;;;;;;98599.18;;;;106959;1279;64758;-33
2022/01/04 12:28:40;;;;;;;7.60;4.20;;;;;;98588.98;;;;106918;1279;64758;-33
2022/01/04 12:31:16;;;;;;;7.60;4.30;;;;;;98573.42;;;;106966;1279;64763;-33
2022/01/04 12:33:47;;;;;;;7.50;4.50;;;;;;98564.38;;;;106948;1279;67139;-33
2022/01/04 12:36:41;;;;;;;8.50;4.60;;;;;;98562.96;;;;106883;1279;64755;-31
2022/01/04 12:39:11;;;;;;;6.40;3.80;;;;;;98555.13;;;;106960;1279;64784;-25
2022/01/04 12:41:41;;;;;;;6.80;4.00;;;;;;98551.52;;;;106939;1279;64824;-35
2022/01/04 12:44:10;;;;;;;8.10;4.40;;;;;;98544.05;;;;106984;1279;64732;-25
2022/01/04 12:46:45;;;;;;;6.70;3.80;;;;;;98537.61;;;;106976;1279;65941;-33
2022/01/04 12:49:21;;;;;;;6.50;4.20;;;;;;98535.06;;;;106781;1279;64742;-39
2022/01/04 12:51:53;;;;;;;7.60;3.90;;;;;;98529.09;;;;106919;1279;64791;-31
2022/01/04 12:54:27;;;;;;;6.00;4.00;;;;;;98518.66;;;;106820;1280;65980;-29
2022/01/04 12:57:07;;;;;;;6.20;4.00;;;;;;98515.40;;;;106866;1281;64804;-27
2022/01/04 12:59:56;;;;;;;6.80;3.90;;;;;;98513.48;;;;106843;1279;68103;-27
2022/01/04 13:02:28;;;;;;;6.60;4.20;;;;;;98506.90;;;;106916;1279;64943;-27
2022/01/04 13:05:03;;;;;;;6.40;4.10;;;;;;98500.72;;;;106972;1279;64762;-35
2022/01/04 13:07:37;;;;;;;6.90;3.80;;;;;;98493.84;;;;106909;1279;64906;-27
2022/01/04 13:10:13;;;;;;;7.30;3.50;;;;;;98486.49;;;;106851;1279;65547;-27
2022/01/04 13:12:48;;;;;;;6.90;4.10;;;;;;98479.91;;;;106943;1279;67093;-28
2022/01/04 13:15:19;;;;;;;7.30;3.90;;;;;;98477.70;;;;106896;1279;64884;-27